Time;durP1;ratioP1;P1;durP2;ratioP2;P2;SDS_P1;SDS_P2;PMS_P1;PMS_P2;Temp;Humidity;BMP_temperature;BMP_pressure;BME280_temperature;BME280_humidity;BME280_pressure;Samples;Min_cycle;Max_cycle;Signal;HPM_P1;HPM_P2
2022/08/19 00:00:03;;;;;;;9.93;8.60;;;;;;;-148.56;100.00;61375.16;4955388;28;20450;-30
2022/08/19 00:02:29;;;;;;;9.52;8.52;;;;;;;-148.56;100.00;61375.16;4955012;28;20023;-33
2022/08/19 00:04:54;;;;;;;10.32;9.20;;;;;;;-148.56;100.00;61375.16;4955912;28;20537;-33
2022/08/19 00:07:19;;;;;;;11.07;9.02;;;;;;;-148.56;100.00;61375.16;4952004;28;20037;-30
2022/08/19 00:09:45;;;;;;;10.35;9.20;;;;;;;-148.56;100.00;61375.16;4951486;28;20895;-33
2022/08/19 00:12:10;;;;;;;11.90;8.95;;;;;;;-148.56;100.00;61375.16;4954002;28;20044;-33
2022/08/19 00:14:36;;;;;;;12.32;9.20;;;;;;;-148.56;100.00;61375.16;4951467;28;20030;-31
2022/08/19 00:17:02;;;;;;;9.90;8.90;;;;;;;-148.56;100.00;61375.16;4951535;28;20090;-32
2022/08/19 00:19:28;;;;;;;12.32;9.20;;;;;;;-148.56;100.00;61375.16;4957225;28;20109;-31
2022/08/19 00:21:54;;;;;;;11.32;8.77;;;;;;;-148.56;100.00;61375.16;4958114;28;20038;-30
2022/08/19 00:24:19;;;;;;;10.48;9.40;;;;;;;-148.56;100.00;61375.16;4964757;28;20050;-27
2022/08/19 00:26:45;;;;;;;10.00;9.00;;;;;;;-148.56;100.00;61375.16;4965044;28;20034;-28
2022/08/19 00:29:11;;;;;;;10.88;9.02;;;;;;;-148.56;100.00;61375.16;4960619;28;20076;-35
2022/08/19 00:31:37;;;;;;;10.23;8.95;;;;;;;-148.56;100.00;61375.16;4958629;28;20110;-32
2022/08/19 00:34:02;;;;;;;10.55;9.43;;;;;;;-148.56;100.00;61375.16;4957747;28;20022;-32
2022/08/19 00:36:28;;;;;;;11.07;9.57;;;;;;;-148.56;100.00;61375.16;4956914;28;20034;-34
2022/08/19 00:38:54;;;;;;;12.50;9.40;;;;;;;-148.56;100.00;61375.16;4955989;28;20030;-27
2022/08/19 00:41:20;;;;;;;11.30;10.00;;;;;;;-148.56;100.00;61375.16;4957159;28;20565;-30
2022/08/19 00:44:12;;;;;;;12.40;10.13;;;;;;;-148.56;100.00;61375.16;4954204;28;20034;-32
2022/08/19 00:46:38;;;;;;;10.98;9.88;;;;;;;-148.56;100.00;61375.16;4955141;28;20030;-30
2022/08/19 00:49:32;;;;;;;10.88;9.75;;;;;;;-148.56;100.00;61375.16;4958278;28;22350;-31
2022/08/19 00:52:31;;;;;;;12.43;9.88;;;;;;;-148.56;100.00;61375.16;4957419;28;20046;-30
2022/08/19 00:54:57;;;;;;;11.32;10.13;;;;;;;-148.56;100.00;61375.16;4954847;28;20039;-30
2022/08/19 00:57:27;;;;;;;10.70;9.60;;;;;;;-148.56;100.00;61375.16;4950824;28;21029;-29
2022/08/19 00:59:52;;;;;;;11.98;9.60;;;;;;;-148.56;100.00;61375.16;4955219;28;20310;-31
2022/08/19 01:02:18;;;;;;;10.60;9.63;;;;;;;-148.56;100.00;61375.16;4956747;28;20402;-30
2022/08/19 01:04:43;;;;;;;10.50;9.50;;;;;;;-148.56;100.00;61375.16;4953230;28;20030;-32
2022/08/19 01:07:08;;;;;;;10.80;9.15;;;;;;;-148.56;100.00;61375.16;4957082;28;20034;-31
2022/08/19 01:09:34;;;;;;;10.95;9.85;;;;;;;-148.56;100.00;61375.16;4971075;28;20038;-28
2022/08/19 01:11:59;;;;;;;11.77;9.88;;;;;;;-148.56;100.00;61375.16;4950228;28;20038;-31
2022/08/19 01:14:25;;;;;;;10.40;9.32;;;;;;;-148.56;100.00;61375.16;4952147;28;20731;-29
2022/08/19 01:16:54;;;;;;;10.30;9.38;;;;;;;-148.56;100.00;61375.16;4956896;28;20030;-33
2022/08/19 01:19:27;;;;;;;10.10;9.10;;;;;;;-148.56;100.00;61375.16;4926118;28;20153;-27
2022/08/19 01:21:57;;;;;;;11.57;9.45;;;;;;;-148.56;100.00;61375.16;4947543;28;20037;-28
2022/08/19 01:24:23;;;;;;;14.07;9.95;;;;;;;-148.56;100.00;61375.16;4945075;28;21956;-29
2022/08/19 01:26:48;;;;;;;12.27;9.45;;;;;;;-148.56;100.00;61375.16;4957979;28;20031;-32
2022/08/19 01:29:14;;;;;;;11.38;9.88;;;;;;;-148.56;100.00;61375.16;4954573;28;20077;-30
2022/08/19 01:31:39;;;;;;;11.85;10.27;;;;;;;-148.56;100.00;61375.16;4959047;28;20033;-30
2022/08/19 01:34:05;;;;;;;11.07;9.68;;;;;;;-148.56;100.00;61375.16;4957756;28;20798;-29
2022/08/19 01:36:47;;;;;;;11.30;10.20;;;;;;;-148.56;100.00;61375.16;4963098;28;20031;-30
2022/08/19 01:39:22;;;;;;;11.68;10.48;;;;;;;-148.56;100.00;61375.16;4954713;28;20117;-31
2022/08/19 01:41:48;;;;;;;11.35;10.25;;;;;;;-148.56;100.00;61375.16;4956643;28;20558;-27
2022/08/19 01:44:13;;;;;;;13.55;10.35;;;;;;;-148.56;100.00;61375.16;4955470;28;20026;-34
2022/08/19 01:46:39;;;;;;;12.43;10.30;;;;;;;-148.56;100.00;61375.16;4958527;28;20037;-32
2022/08/19 01:49:05;;;;;;;11.93;10.70;;;;;;;-148.56;100.00;61375.16;4960775;28;20030;-29
2022/08/19 01:51:30;;;;;;;12.82;10.20;;;;;;;-148.56;100.00;61375.16;4961607;28;21201;-29
2022/08/19 01:53:56;;;;;;;13.98;10.93;;;;;;;-148.56;100.00;61375.16;4958409;28;20049;-29
2022/08/19 01:56:21;;;;;;;12.68;10.93;;;;;;;-148.56;100.00;61375.16;4963295;28;20133;-30
2022/08/19 01:58:53;;;;;;;11.60;10.45;;;;;;;-148.56;100.00;61375.16;4962916;28;20065;-27
2022/08/19 02:01:18;;;;;;;14.10;10.85;;;;;;;-148.56;100.00;61375.16;4947087;28;20034;-27
2022/08/19 02:03:44;;;;;;;11.52;10.32;;;;;;;-148.56;100.00;61375.16;4963201;28;20029;-31
2022/08/19 02:06:09;;;;;;;12.75;10.73;;;;;;;-148.56;100.00;61375.16;4960657;28;20037;-30
2022/08/19 02:08:35;;;;;;;12.52;11.32;;;;;;;-148.56;100.00;61375.16;4960421;28;20022;-29
2022/08/19 02:11:01;;;;;;;12.30;11.00;;;;;;;-148.56;100.00;61375.16;4957004;28;20303;-30
2022/08/19 02:13:27;;;;;;;12.82;10.68;;;;;;;-148.56;100.00;61375.16;4958958;28;20078;-31
2022/08/19 02:15:52;;;;;;;14.23;10.65;;;;;;;-148.56;100.00;61375.16;4955878;28;20735;-29
2022/08/19 02:18:17;;;;;;;12.75;11.40;;;;;;;-148.56;100.00;61375.16;4956757;28;20039;-32
2022/08/19 02:20:44;;;;;;;12.60;10.93;;;;;;;-148.56;100.00;61375.16;4958985;28;20030;-30
2022/08/19 02:23:10;;;;;;;12.30;11.10;;;;;;;-148.56;100.00;61375.16;4962852;28;20068;-31
2022/08/19 02:25:36;;;;;;;12.15;10.95;;;;;;;-148.56;100.00;61375.16;4962368;28;20034;-31
2022/08/19 02:28:01;;;;;;;12.07;10.80;;;;;;;-148.56;100.00;61375.16;4967304;28;20026;-31
2022/08/19 02:30:27;;;;;;;12.00;10.80;;;;;;;-148.56;100.00;61375.16;4962608;28;20553;-44
2022/08/19 02:32:52;;;;;;;13.50;11.68;;;;;;;-148.56;100.00;61375.16;4959539;28;20736;-31
2022/08/19 02:35:18;;;;;;;12.18;10.98;;;;;;;-148.56;100.00;61375.16;4957551;28;20031;-29
2022/08/19 02:40:28;;;;;;;12.50;11.30;;;;;;;-148.56;100.00;61375.16;4961001;28;20733;-27
2022/08/19 02:42:54;;;;;;;11.90;10.70;;;;;;;-148.56;100.00;61375.16;4971219;28;20153;-29
2022/08/19 02:45:19;;;;;;;11.82;10.63;;;;;;;-148.56;100.00;61375.16;4958823;28;20034;-30
2022/08/19 02:47:45;;;;;;;12.05;10.40;;;;;;;-148.56;100.00;61375.16;4958533;28;20022;-30
2022/08/19 02:50:10;;;;;;;11.85;10.65;;;;;;;-148.56;100.00;61375.16;4958165;28;20049;-27
2022/08/19 02:52:36;;;;;;;12.25;10.45;;;;;;;-148.56;100.00;61375.16;4959992;28;20046;-28
2022/08/19 02:55:01;;;;;;;11.98;10.77;;;;;;;-148.56;100.00;61375.16;4975289;28;20027;-32
2022/08/19 02:57:27;;;;;;;11.43;10.32;;;;;;;-148.56;100.00;61375.16;4961546;28;20776;-29
2022/08/19 02:59:52;;;;;;;13.32;10.82;;;;;;;-148.56;100.00;61375.16;4960659;28;20605;-32
2022/08/19 03:02:17;;;;;;;11.45;10.35;;;;;;;-148.56;100.00;61375.16;4962850;28;20520;-31
2022/08/19 03:04:43;;;;;;;12.70;11.18;;;;;;;-148.56;100.00;61375.16;4957862;28;20064;-30
2022/08/19 03:07:08;;;;;;;12.95;11.05;;;;;;;-148.56;100.00;61375.16;4958547;28;20037;-27
2022/08/19 03:09:36;;;;;;;13.10;11.50;;;;;;;-148.56;100.00;61375.16;4956265;28;20076;-30
2022/08/19 03:12:03;;;;;;;13.50;11.52;;;;;;;-148.56;100.00;61375.16;4958810;28;20035;-30
2022/08/19 03:14:30;;;;;;;12.52;11.27;;;;;;;-148.56;100.00;61375.16;4959613;28;20045;-29
2022/08/19 03:16:56;;;;;;;12.75;11.35;;;;;;;-148.56;100.00;61375.16;4958787;28;20588;-29
2022/08/19 03:19:21;;;;;;;12.45;11.15;;;;;;;-148.56;100.00;61375.16;4957863;28;20022;-32
2022/08/19 03:21:46;;;;;;;13.23;11.32;;;;;;;-148.56;100.00;61375.16;4959101;28;20026;-29
2022/08/19 03:24:12;;;;;;;13.32;11.88;;;;;;;-148.56;100.00;61375.16;4960195;28;20061;-29
2022/08/19 03:26:41;;;;;;;12.82;11.55;;;;;;;-148.56;100.00;61375.16;4957995;28;20065;-31
2022/08/19 03:29:08;;;;;;;12.18;10.98;;;;;;;-148.56;100.00;61375.16;4954320;28;20041;-26
2022/08/19 03:31:34;;;;;;;13.07;11.68;;;;;;;-148.56;100.00;61375.16;4958172;28;20124;-31
2022/08/19 03:33:59;;;;;;;13.35;11.93;;;;;;;-148.56;100.00;61375.16;4958060;28;20686;-31
2022/08/19 03:36:25;;;;;;;13.55;12.18;;;;;;;-148.56;100.00;61375.16;4959970;28;20565;-27
2022/08/19 03:38:55;;;;;;;12.98;11.68;;;;;;;-148.56;100.00;61375.16;4958037;28;20681;-28
2022/08/19 03:41:23;;;;;;;14.77;12.05;;;;;;;-148.56;100.00;61375.16;4962074;28;20030;-26
2022/08/19 03:43:49;;;;;;;14.90;11.35;;;;;;;-148.56;100.00;61375.16;4955705;28;20508;-33
2022/08/19 03:46:20;;;;;;;13.48;12.07;;;;;;;-148.56;100.00;61375.16;4960690;28;20034;-29
2022/08/19 03:48:45;;;;;;;15.07;11.73;;;;;;;-148.56;100.00;61375.16;4960746;28;20097;-30
2022/08/19 03:51:21;;;;;;;15.50;11.75;;;;;;;-148.56;100.00;61375.16;4956108;28;20679;-30
2022/08/19 03:53:47;;;;;;;15.25;11.45;;;;;;;-148.56;100.00;61375.16;4959702;28;20167;-25
2022/08/19 03:56:12;;;;;;;13.20;11.90;;;;;;;-148.56;100.00;61375.16;4955179;28;20496;-28
2022/08/19 03:58:38;;;;;;;14.30;12.45;;;;;;;-148.56;100.00;61375.16;4955052;28;20637;-29
2022/08/19 04:01:07;;;;;;;15.70;12.10;;;;;;;-148.56;100.00;61375.16;4958407;28;20026;-31
2022/08/19 04:03:32;;;;;;;16.73;12.10;;;;;;;-148.56;100.00;61375.16;4967494;28;20116;-32
2022/08/19 04:05:58;;;;;;;13.48;12.05;;;;;;;-148.56;100.00;61375.16;4956886;28;20022;-29
2022/08/19 04:08:23;;;;;;;14.02;12.02;;;;;;;-148.56;100.00;61375.16;4958905;28;20849;-33
2022/08/19 04:10:49;;;;;;;13.63;12.23;;;;;;;-148.56;100.00;61375.16;4958414;28;20033;-32
2022/08/19 04:13:15;;;;;;;14.18;12.75;;;;;;;-148.56;100.00;61375.16;4957715;28;20038;-31
2022/08/19 04:15:41;;;;;;;12.95;11.63;;;;;;;-148.56;100.00;61375.16;4959276;28;20054;-30
2022/08/19 04:18:08;;;;;;;13.75;11.57;;;;;;;-148.56;100.00;61375.16;4959106;28;20933;-33
2022/08/19 04:20:44;;;;;;;13.27;11.88;;;;;;;-148.56;100.00;61375.16;4954737;28;20087;-29
2022/08/19 04:23:10;;;;;;;13.43;12.00;;;;;;;-148.56;100.00;61375.16;4962802;28;20042;-28
2022/08/19 04:25:39;;;;;;;16.45;11.68;;;;;;;-148.56;100.00;61375.16;4961816;28;20022;-29
2022/08/19 04:28:05;;;;;;;13.27;11.88;;;;;;;-148.56;100.00;61375.16;4959099;28;20035;-29
2022/08/19 04:30:30;;;;;;;13.68;12.27;;;;;;;-148.56;100.00;61375.16;4959637;28;20027;-30
2022/08/19 04:32:56;;;;;;;13.27;11.82;;;;;;;-148.56;100.00;61375.16;4959184;28;20037;-30
2022/08/19 04:35:21;;;;;;;13.32;12.05;;;;;;;-148.56;100.00;61375.16;4957456;28;20581;-29
2022/08/19 04:37:47;;;;;;;13.63;12.25;;;;;;;-148.56;100.00;61375.16;4954561;28;20026;-30
2022/08/19 04:42:56;;;;;;;13.75;12.13;;;;;;;-148.56;100.00;61375.16;4956037;28;20139;-28
2022/08/19 04:45:21;;;;;;;13.18;11.80;;;;;;;-148.56;100.00;61375.16;4961315;28;20534;-31
2022/08/19 04:47:47;;;;;;;14.88;11.70;;;;;;;-148.56;100.00;61375.16;4958816;28;20833;-30
2022/08/19 04:50:12;;;;;;;13.38;12.05;;;;;;;-148.56;100.00;61375.16;4960450;28;20644;-25
2022/08/19 04:52:41;;;;;;;14.27;12.32;;;;;;;-148.56;100.00;61375.16;4958139;28;20057;-31
2022/08/19 04:55:07;;;;;;;12.95;11.50;;;;;;;-148.56;100.00;61375.16;4956896;28;20726;-30
2022/08/19 04:57:33;;;;;;;14.23;11.75;;;;;;;-148.56;100.00;61375.16;4961072;28;20065;-29
2022/08/19 04:59:58;;;;;;;12.77;11.45;;;;;;;-148.56;100.00;61375.16;4961764;28;20558;-31
2022/08/19 05:02:25;;;;;;;13.98;11.50;;;;;;;-148.56;100.00;61375.16;4957649;28;20027;-29
2022/08/19 05:04:57;;;;;;;13.13;11.73;;;;;;;-148.56;100.00;61375.16;4958089;28;20034;-32
2022/08/19 05:07:22;;;;;;;13.80;11.20;;;;;;;-148.56;100.00;61375.16;4956982;28;20034;-26
2022/08/19 05:09:48;;;;;;;13.38;11.68;;;;;;;-148.56;100.00;61375.16;4955322;28;20037;-29
2022/08/19 05:12:13;;;;;;;15.77;12.55;;;;;;;-148.56;100.00;61375.16;4957286;28;20549;-28
2022/08/19 05:14:38;;;;;;;13.88;12.45;;;;;;;-148.56;100.00;61375.16;4958138;28;20042;-29
2022/08/19 05:17:04;;;;;;;14.95;12.70;;;;;;;-148.56;100.00;61375.16;4959837;28;20018;-31
2022/08/19 05:22:32;;;;;;;14.30;12.73;;;;;;;-148.56;100.00;61375.16;4962416;28;20675;-26
2022/08/19 05:24:57;;;;;;;13.95;12.57;;;;;;;-148.56;100.00;61375.16;4962391;28;20025;-30
2022/08/19 05:27:23;;;;;;;14.27;12.85;;;;;;;-148.56;100.00;61375.16;4957844;28;20092;-30
2022/08/19 05:29:48;;;;;;;14.23;12.77;;;;;;;-148.56;100.00;61375.16;4959823;28;20049;-29
2022/08/19 05:32:13;;;;;;;12.93;11.52;;;;;;;-148.56;100.00;61375.16;4961551;28;20027;-31
2022/08/19 05:34:39;;;;;;;13.10;11.80;;;;;;;-148.56;100.00;61375.16;4961179;28;20066;-32
2022/08/19 05:37:04;;;;;;;14.10;11.63;;;;;;;-148.56;100.00;61375.16;4957379;28;20030;-32
2022/08/19 05:39:31;;;;;;;13.27;11.90;;;;;;;-148.56;100.00;61375.16;4958938;28;20138;-31
2022/08/19 05:41:59;;;;;;;13.32;11.98;;;;;;;-148.56;100.00;61375.16;4959974;28;20038;-30
2022/08/19 05:44:25;;;;;;;13.40;12.02;;;;;;;-148.56;100.00;61375.16;4959939;28;20848;-29
2022/08/19 05:46:54;;;;;;;13.50;12.13;;;;;;;-148.56;100.00;61375.16;4960994;28;20046;-30
2022/08/19 05:49:21;;;;;;;14.00;12.48;;;;;;;-148.56;100.00;61375.16;4963267;28;20545;-33
2022/08/19 05:51:46;;;;;;;15.55;12.38;;;;;;;-148.56;100.00;61375.16;4962699;28;20034;-30
2022/08/19 05:54:13;;;;;;;13.85;12.23;;;;;;;-148.56;100.00;61375.16;4959897;28;20306;-30
2022/08/19 05:56:39;;;;;;;13.40;12.13;;;;;;;-148.56;100.00;61375.16;4964971;28;20022;-31
2022/08/19 05:59:09;;;;;;;13.38;11.55;;;;;;;-148.56;100.00;61375.16;4960367;28;20030;-32
2022/08/19 06:01:35;;;;;;;15.98;13.25;;;;;;;-148.56;100.00;61375.16;4961438;28;20551;-28
2022/08/19 06:04:00;;;;;;;12.73;11.43;;;;;;;-148.56;100.00;61375.16;4960945;28;20030;-31
2022/08/19 06:06:26;;;;;;;14.68;13.18;;;;;;;-148.56;100.00;61375.16;4976813;28;20030;-33
2022/08/19 06:08:51;;;;;;;13.93;12.45;;;;;;;-148.56;100.00;61375.16;4960838;28;20018;-34
2022/08/19 06:11:18;;;;;;;14.05;12.57;;;;;;;-148.56;100.00;61375.16;4958119;28;20022;-30
2022/08/19 06:13:46;;;;;;;13.80;12.40;;;;;;;-148.56;100.00;61375.16;4957959;28;20084;-31
2022/08/19 06:16:12;;;;;;;15.30;12.45;;;;;;;-148.56;100.00;61375.16;4957949;28;20089;-30
2022/08/19 06:18:37;;;;;;;15.40;12.30;;;;;;;-148.56;100.00;61375.16;4959040;28;20873;-31
2022/08/19 06:21:04;;;;;;;14.77;12.65;;;;;;;-148.56;100.00;61375.16;4957896;28;20590;-29
2022/08/19 06:23:30;;;;;;;13.52;12.10;;;;;;;-148.56;100.00;61375.16;4959962;28;20062;-28
2022/08/19 06:25:55;;;;;;;22.60;14.95;;;;;;;-148.56;100.00;61375.16;4960293;28;20030;-32
2022/08/19 06:28:21;;;;;;;21.67;18.38;;;;;;;-148.56;100.00;61375.16;4962078;28;20030;-30
2022/08/19 06:30:47;;;;;;;19.30;17.33;;;;;;;-148.56;100.00;61375.16;4959553;28;20026;-29
2022/08/19 06:33:12;;;;;;;20.65;18.50;;;;;;;-148.56;100.00;61375.16;4958519;28;20925;-26
2022/08/19 06:35:41;;;;;;;18.85;16.90;;;;;;;-148.56;100.00;61375.16;4954456;28;20030;-29
2022/08/19 06:38:06;;;;;;;19.98;17.77;;;;;;;-148.56;100.00;61375.16;4953589;28;20037;-30
2022/08/19 06:40:31;;;;;;;22.35;19.60;;;;;;;-148.56;100.00;61375.16;4955385;28;20651;-33
2022/08/19 06:42:59;;;;;;;20.15;18.05;;;;;;;-148.56;100.00;61375.16;4960416;28;20542;-29
2022/08/19 06:45:25;;;;;;;20.90;17.50;;;;;;;-148.56;100.00;61375.16;4959200;28;20042;-32
2022/08/19 06:47:53;;;;;;;21.30;19.10;;;;;;;-148.56;100.00;61375.16;4948826;28;20053;-28
2022/08/19 06:50:19;;;;;;;22.20;17.35;;;;;;;-148.56;100.00;61375.16;4954354;28;20743;-27
2022/08/19 06:52:44;;;;;;;21.55;19.33;;;;;;;-148.56;100.00;61375.16;4954268;28;20090;-30
2022/08/19 06:55:10;;;;;;;22.73;17.65;;;;;;;-148.56;100.00;61375.16;4951145;28;20037;-31
2022/08/19 06:57:35;;;;;;;20.35;18.20;;;;;;;-148.56;100.00;61375.16;4957204;28;20632;-31
2022/08/19 07:00:01;;;;;;;22.05;18.30;;;;;;;-148.56;100.00;61375.16;4952106;28;20738;-27
2022/08/19 07:02:26;;;;;;;21.85;16.85;;;;;;;-148.56;100.00;61375.16;4953950;28;20738;-29
2022/08/19 07:04:52;;;;;;;16.65;14.20;;;;;;;-148.56;100.00;61375.16;4952058;28;20080;-31
2022/08/19 07:07:19;;;;;;;18.10;11.85;;;;;;;-148.56;100.00;61375.16;4950626;28;20157;-32
2022/08/19 07:09:44;;;;;;;14.20;12.15;;;;;;;-148.56;100.00;61375.16;4955976;28;20034;-28
2022/08/19 07:12:11;;;;;;;17.90;13.80;;;;;;;-148.56;100.00;61375.16;4954247;28;20061;-31
2022/08/19 07:14:37;;;;;;;15.40;13.68;;;;;;;-148.56;100.00;61375.16;4956279;28;20113;-24
2022/08/19 07:17:10;;;;;;;17.38;14.00;;;;;;;-148.56;100.00;61375.16;4960174;28;20054;-32
2022/08/19 07:19:35;;;;;;;17.92;14.05;;;;;;;-148.56;100.00;61375.16;4955199;28;20034;-31
2022/08/19 07:22:02;;;;;;;19.27;14.00;;;;;;;-148.56;100.00;61375.16;4962466;28;20066;-31
2022/08/19 07:24:27;;;;;;;16.30;13.38;;;;;;;-148.56;100.00;61375.16;4957273;28;20126;-29
2022/08/19 07:26:54;;;;;;;18.20;13.48;;;;;;;-148.56;100.00;61375.16;4962024;28;20069;-33
2022/08/19 07:29:22;;;;;;;22.10;13.48;;;;;;;-148.56;100.00;61375.16;4956643;28;20153;-27
2022/08/19 07:31:48;;;;;;;23.48;13.23;;;;;;;-148.56;100.00;61375.16;4958884;28;20312;-31
2022/08/19 07:34:14;;;;;;;23.05;13.55;;;;;;;-148.56;100.00;61375.16;4961965;28;20038;-29
2022/08/19 07:36:40;;;;;;;22.75;14.27;;;;;;;-148.56;100.00;61375.16;4962345;28;20037;-31
2022/08/19 07:39:11;;;;;;;26.50;13.20;;;;;;;-148.56;100.00;61375.16;4959916;28;20038;-32
2022/08/19 07:41:37;;;;;;;33.20;13.50;;;;;;;-148.56;100.00;61375.16;4955750;28;20030;-35
2022/08/19 07:44:03;;;;;;;26.65;13.02;;;;;;;-148.56;100.00;61375.16;4975608;28;20375;-30
2022/08/19 07:46:30;;;;;;;22.73;14.18;;;;;;;-148.56;100.00;61375.16;4950059;28;20148;-30
2022/08/19 07:48:56;;;;;;;17.25;14.30;;;;;;;-148.56;100.00;61375.16;4959847;28;20396;-30
2022/08/19 07:51:21;;;;;;;14.93;12.50;;;;;;;-148.56;100.00;61375.16;4952946;28;20037;-28
2022/08/19 07:53:47;;;;;;;18.60;13.57;;;;;;;-148.56;100.00;61375.16;4960138;28;20030;-30
2022/08/19 07:56:13;;;;;;;15.70;14.00;;;;;;;-148.56;100.00;61375.16;4956032;28;20041;-33
2022/08/19 07:58:42;;;;;;;19.10;13.25;;;;;;;-148.56;100.00;61375.16;4956639;28;20031;-28
2022/08/19 08:01:09;;;;;;;21.48;12.60;;;;;;;-148.56;100.00;61375.16;4957351;28;20775;-28
2022/08/19 08:09:20;;;;;;;18.15;12.70;;;;;;;-148.56;100.00;61375.16;4955344;28;20154;-31
2022/08/19 08:11:49;;;;;;;31.05;13.55;;;;;;;-148.56;100.00;61375.16;4959510;28;20076;-28
2022/08/19 08:14:22;;;;;;;35.35;13.40;;;;;;;-148.56;100.00;61375.16;4952226;28;20549;-32
2022/08/19 08:16:47;;;;;;;35.97;12.88;;;;;;;-148.56;100.00;61375.16;4961799;28;20018;-30
2022/08/19 08:19:16;;;;;;;41.10;12.73;;;;;;;-148.56;100.00;61375.16;4957405;28;20109;-28
2022/08/19 08:21:42;;;;;;;31.83;12.70;;;;;;;-148.56;100.00;61375.16;4963767;28;20030;-27
2022/08/19 08:24:07;;;;;;;27.40;12.73;;;;;;;-148.56;100.00;61375.16;4970005;28;20109;-29
2022/08/19 08:26:33;;;;;;;23.05;12.40;;;;;;;-148.56;100.00;61375.16;4969836;28;20041;-31
2022/08/19 08:28:58;;;;;;;20.60;12.45;;;;;;;-148.56;100.00;61375.16;4965997;28;20034;-32
2022/08/19 08:31:24;;;;;;;23.95;12.10;;;;;;;-148.56;100.00;61375.16;4960026;28;20037;-28
2022/08/19 08:33:49;;;;;;;34.63;13.25;;;;;;;-148.56;100.00;61375.16;4960883;28;20030;-30
2022/08/19 08:36:14;;;;;;;27.30;12.30;;;;;;;-148.56;100.00;61375.16;4951507;28;20026;-29
2022/08/19 08:38:41;;;;;;;23.20;11.88;;;;;;;-148.56;100.00;61375.16;4954330;28;20034;-31
2022/08/19 08:41:19;;;;;;;27.75;11.68;;;;;;;-148.56;100.00;61375.16;4960102;28;20030;-29
2022/08/19 08:43:45;;;;;;;22.67;11.57;;;;;;;-148.56;100.00;61375.16;4956271;28;20018;-32
2022/08/19 08:46:10;;;;;;;15.27;11.20;;;;;;;-148.56;100.00;61375.16;4950011;28;20953;-31
2022/08/19 08:48:38;;;;;;;20.08;11.30;;;;;;;-148.56;100.00;61375.16;4960978;28;20037;-29
2022/08/19 08:51:07;;;;;;;27.05;11.23;;;;;;;-148.56;100.00;61375.16;4957861;28;20743;-30
2022/08/19 08:53:33;;;;;;;43.42;13.20;;;;;;;-148.56;100.00;61375.16;4947645;28;20034;-32
2022/08/19 08:56:00;;;;;;;42.20;13.85;;;;;;;-148.56;100.00;61375.16;4949727;28;20081;-29
2022/08/19 08:58:41;;;;;;;49.60;14.65;;;;;;;-148.56;100.00;61375.16;4940168;28;20057;-31
2022/08/19 09:01:11;;;;;;;37.50;13.75;;;;;;;-148.56;100.00;61375.16;4958806;28;20019;-30
2022/08/19 09:03:36;;;;;;;35.83;13.25;;;;;;;-148.56;100.00;61375.16;4961028;28;20413;-31
2022/08/19 09:06:05;;;;;;;25.90;12.93;;;;;;;-148.56;100.00;61375.16;4956635;28;20030;-28
2022/08/19 09:09:03;;;;;;;38.00;12.82;;;;;;;-148.56;100.00;61375.16;4957444;28;20554;-28
2022/08/19 09:11:49;;;;;;;46.10;14.13;;;;;;;-148.56;100.00;61375.16;4946069;28;20038;-32
2022/08/19 09:14:41;;;;;;;37.40;11.88;;;;;;;-148.56;100.00;61375.16;4948953;28;20033;-29
2022/08/19 09:17:07;;;;;;;29.07;10.17;;;;;;;-148.56;100.00;61375.16;4954772;28;20026;-29
2022/08/19 09:19:34;;;;;;;30.75;10.27;;;;;;;-148.56;100.00;61375.16;4952466;28;20737;-32
2022/08/19 09:22:00;;;;;;;27.17;9.50;;;;;;;-148.56;100.00;61375.16;4957769;28;20742;-26
2022/08/19 09:24:25;;;;;;;25.25;8.85;;;;;;;-148.56;100.00;61375.16;4954525;28;20019;-28
2022/08/19 09:26:51;;;;;;;31.67;8.90;;;;;;;-148.56;100.00;61375.16;4957147;28;20038;-32
2022/08/19 09:29:16;;;;;;;21.92;9.32;;;;;;;-148.56;100.00;61375.16;4954705;28;20029;-29
2022/08/19 09:31:42;;;;;;;26.75;9.05;;;;;;;-148.56;100.00;61375.16;4958070;28;20807;-28
2022/08/19 09:34:08;;;;;;;22.70;9.43;;;;;;;-148.56;100.00;61375.16;4952104;28;20041;-29
2022/08/19 09:36:35;;;;;;;19.83;8.77;;;;;;;-148.56;100.00;61375.16;4953445;28;20144;-30
2022/08/19 09:39:02;;;;;;;20.88;8.10;;;;;;;-148.56;100.00;61375.16;4956969;28;20030;-27
2022/08/19 09:41:28;;;;;;;17.98;7.95;;;;;;;-148.56;100.00;61375.16;4957141;28;20050;-28
2022/08/19 09:43:57;;;;;;;20.02;7.75;;;;;;;-148.56;100.00;61375.16;4956304;28;20034;-30
2022/08/19 09:46:26;;;;;;;17.85;8.32;;;;;;;-148.56;100.00;61375.16;4964738;28;20762;-27
2022/08/19 09:48:53;;;;;;;25.50;9.27;;;;;;;-148.56;100.00;61375.16;4959821;28;20246;-30
2022/08/19 09:51:23;;;;;;;27.98;9.10;;;;;;;-148.56;100.00;61375.16;4961287;28;20038;-30
2022/08/19 09:53:53;;;;;;;18.25;8.20;;;;;;;-148.56;100.00;61375.16;4959777;28;20023;-30
2022/08/19 09:56:19;;;;;;;22.02;8.35;;;;;;;-148.56;100.00;61375.16;4959728;28;20066;-28
2022/08/19 09:58:44;;;;;;;18.80;8.18;;;;;;;-148.56;100.00;61375.16;4962616;28;20034;-33
2022/08/19 10:01:15;;;;;;;18.50;8.30;;;;;;;-148.56;100.00;61375.16;4961755;28;20590;-30
2022/08/19 10:03:41;;;;;;;18.00;7.87;;;;;;;-148.56;100.00;61375.16;4960602;28;20455;-28
2022/08/19 10:06:06;;;;;;;18.95;8.43;;;;;;;-148.56;100.00;61375.16;4963768;28;20476;-28
2022/08/19 10:08:34;;;;;;;16.98;7.57;;;;;;;-148.56;100.00;61375.16;4963034;28;20026;-32
2022/08/19 10:10:59;;;;;;;20.33;7.75;;;;;;;-148.56;100.00;61375.16;4961602;28;20066;-27
2022/08/19 10:13:26;;;;;;;16.52;7.18;;;;;;;-148.56;100.00;61375.16;4947382;28;20088;-31
2022/08/19 10:15:53;;;;;;;16.17;7.55;;;;;;;-148.56;100.00;61375.16;4963833;28;20371;-30
2022/08/19 10:18:20;;;;;;;14.60;7.32;;;;;;;-148.56;100.00;61375.16;4964722;28;20045;-29
2022/08/19 10:20:49;;;;;;;20.10;7.60;;;;;;;-148.56;100.00;61375.16;4964435;28;20046;-29
2022/08/19 10:23:15;;;;;;;14.38;7.15;;;;;;;-148.56;100.00;61375.16;4967915;28;20782;-32
2022/08/19 10:25:41;;;;;;;13.35;7.72;;;;;;;-148.56;100.00;61375.16;4966647;28;20043;-29
2022/08/19 10:28:07;;;;;;;11.60;6.75;;;;;;;-148.56;100.00;61375.16;4966981;28;20061;-29
2022/08/19 10:30:32;;;;;;;16.73;7.38;;;;;;;-148.56;100.00;61375.16;4965887;28;20040;-29
2022/08/19 10:32:58;;;;;;;11.50;6.78;;;;;;;-148.56;100.00;61375.16;4962516;28;20937;-27
2022/08/19 10:35:26;;;;;;;13.25;6.78;;;;;;;-148.56;100.00;61375.16;4964026;28;20042;-33
2022/08/19 10:37:51;;;;;;;11.13;6.60;;;;;;;-148.56;100.00;61375.16;4966951;28;20026;-32
2022/08/19 10:40:17;;;;;;;11.45;6.45;;;;;;;-148.56;100.00;61375.16;4948298;28;20030;-29
2022/08/19 10:42:44;;;;;;;15.10;6.40;;;;;;;-148.56;100.00;61375.16;4953644;28;20048;-34
2022/08/19 10:45:10;;;;;;;10.77;5.90;;;;;;;-148.56;100.00;61375.16;4962014;28;20577;-31
2022/08/19 10:47:35;;;;;;;9.75;6.00;;;;;;;-148.56;100.00;61375.16;4971084;28;20153;-29
2022/08/19 10:52:46;;;;;;;10.13;6.20;;;;;;;-148.56;100.00;61375.16;4973685;28;20049;-32
2022/08/19 10:57:57;;;;;;;13.90;5.88;;;;;;;-148.56;100.00;61375.16;4967706;28;20072;-29
2022/08/19 11:00:23;;;;;;;9.90;5.63;;;;;;;-148.56;100.00;61375.16;4969504;28;20038;-30
2022/08/19 11:02:48;;;;;;;11.02;5.68;;;;;;;-148.56;100.00;61375.16;4969999;28;20077;-31
2022/08/19 11:05:14;;;;;;;9.80;5.32;;;;;;;-148.56;100.00;61375.16;4969769;28;20037;-31
2022/08/19 11:07:40;;;;;;;11.13;5.85;;;;;;;-148.56;100.00;61375.16;4971100;28;20050;-29
2022/08/19 11:10:06;;;;;;;9.50;5.20;;;;;;;-148.56;100.00;61375.16;4972562;28;20058;-33
2022/08/19 11:12:32;;;;;;;10.20;5.40;;;;;;;-148.56;100.00;61375.16;4972659;28;20030;-31
2022/08/19 11:14:58;;;;;;;10.38;5.35;;;;;;;-148.56;100.00;61375.16;4971365;28;20034;-27